sensor_id;sensor_type;location;lat;lon;timestamp;P1;durP1;ratioP1;P2;durP2;ratioP2
29362;SDS011;16349;53.672;10.014;2023-05-07T00:00:46;9.53;;;8.33;;
29362;SDS011;16349;53.672;10.014;2023-05-07T00:03:13;10.07;;;7.73;;
29362;SDS011;16349;53.672;10.014;2023-05-07T00:05:40;9.73;;;8.30;;
29362;SDS011;16349;53.672;10.014;2023-05-07T00:08:08;10.20;;;8.63;;
29362;SDS011;16349;53.672;10.014;2023-05-07T00:10:35;9.20;;;8.20;;
29362;SDS011;16349;53.672;10.014;2023-05-07T00:13:02;9.93;;;8.70;;
29362;SDS011;16349;53.672;10.014;2023-05-07T00:15:29;9.73;;;8.17;;
29362;SDS011;16349;53.672;10.014;2023-05-07T00:17:57;9.53;;;7.80;;
29362;SDS011;16349;53.672;10.014;2023-05-07T00:20:25;10.07;;;8.97;;
29362;SDS011;16349;53.672;10.014;2023-05-07T00:22:52;9.93;;;8.60;;
29362;SDS011;16349;53.672;10.014;2023-05-07T00:25:20;9.30;;;8.20;;
29362;SDS011;16349;53.672;10.014;2023-05-07T00:27:47;10.33;;;9.30;;
29362;SDS011;16349;53.672;10.014;2023-05-07T00:30:15;8.87;;;8.07;;
29362;SDS011;16349;53.672;10.014;2023-05-07T00:32:41;12.00;;;8.90;;
29362;SDS011;16349;53.672;10.014;2023-05-07T00:35:11;11.07;;;8.77;;
29362;SDS011;16349;53.672;10.014;2023-05-07T00:37:38;10.03;;;8.93;;
29362;SDS011;16349;53.672;10.014;2023-05-07T00:40:06;11.93;;;9.33;;
29362;SDS011;16349;53.672;10.014;2023-05-07T00:42:35;11.10;;;8.50;;
29362;SDS011;16349;53.672;10.014;2023-05-07T00:45:03;11.20;;;9.37;;
29362;SDS011;16349;53.672;10.014;2023-05-07T00:47:32;9.30;;;8.13;;
29362;SDS011;16349;53.672;10.014;2023-05-07T00:50:00;10.63;;;8.50;;
29362;SDS011;16349;53.672;10.014;2023-05-07T00:52:27;11.17;;;8.77;;
29362;SDS011;16349;53.672;10.014;2023-05-07T00:54:55;11.27;;;8.77;;
29362;SDS011;16349;53.672;10.014;2023-05-07T00:57:22;11.67;;;8.37;;
29362;SDS011;16349;53.672;10.014;2023-05-07T00:59:52;10.60;;;9.00;;
29362;SDS011;16349;53.672;10.014;2023-05-07T01:02:19;10.40;;;8.50;;
29362;SDS011;16349;53.672;10.014;2023-05-07T01:04:46;9.27;;;8.27;;
29362;SDS011;16349;53.672;10.014;2023-05-07T01:07:13;11.07;;;8.13;;
29362;SDS011;16349;53.672;10.014;2023-05-07T01:09:41;9.97;;;8.70;;
29362;SDS011;16349;53.672;10.014;2023-05-07T01:12:08;9.27;;;7.63;;
29362;SDS011;16349;53.672;10.014;2023-05-07T01:14:36;11.87;;;8.73;;
29362;SDS011;16349;53.672;10.014;2023-05-07T01:17:04;10.20;;;8.30;;
29362;SDS011;16349;53.672;10.014;2023-05-07T01:19:32;9.70;;;7.93;;
29362;SDS011;16349;53.672;10.014;2023-05-07T01:22:01;8.27;;;7.53;;
29362;SDS011;16349;53.672;10.014;2023-05-07T01:24:36;9.07;;;8.13;;
29362;SDS011;16349;53.672;10.014;2023-05-07T01:27:04;9.83;;;8.53;;
29362;SDS011;16349;53.672;10.014;2023-05-07T01:29:32;9.30;;;8.37;;
29362;SDS011;16349;53.672;10.014;2023-05-07T01:32:00;10.17;;;8.00;;
29362;SDS011;16349;53.672;10.014;2023-05-07T01:34:28;9.70;;;8.40;;
29362;SDS011;16349;53.672;10.014;2023-05-07T01:36:57;8.67;;;7.60;;
29362;SDS011;16349;53.672;10.014;2023-05-07T01:39:28;9.37;;;8.37;;
29362;SDS011;16349;53.672;10.014;2023-05-07T01:41:57;8.67;;;7.73;;
29362;SDS011;16349;53.672;10.014;2023-05-07T01:44:26;8.83;;;7.07;;
29362;SDS011;16349;53.672;10.014;2023-05-07T01:46:54;8.77;;;7.57;;
29362;SDS011;16349;53.672;10.014;2023-05-07T01:49:22;8.37;;;7.20;;
29362;SDS011;16349;53.672;10.014;2023-05-07T01:51:50;9.20;;;6.60;;
29362;SDS011;16349;53.672;10.014;2023-05-07T01:54:17;7.97;;;7.13;;
29362;SDS011;16349;53.672;10.014;2023-05-07T01:56:45;8.70;;;7.03;;
29362;SDS011;16349;53.672;10.014;2023-05-07T01:59:14;7.77;;;6.47;;
29362;SDS011;16349;53.672;10.014;2023-05-07T02:01:41;8.17;;;6.70;;
29362;SDS011;16349;53.672;10.014;2023-05-07T02:04:09;7.73;;;6.93;;
29362;SDS011;16349;53.672;10.014;2023-05-07T02:06:37;8.20;;;5.87;;
29362;SDS011;16349;53.672;10.014;2023-05-07T02:09:05;7.23;;;6.53;;
29362;SDS011;16349;53.672;10.014;2023-05-07T02:11:34;7.40;;;6.57;;
29362;SDS011;16349;53.672;10.014;2023-05-07T02:14:02;8.47;;;6.07;;
29362;SDS011;16349;53.672;10.014;2023-05-07T02:16:30;6.97;;;6.20;;
29362;SDS011;16349;53.672;10.014;2023-05-07T02:18:57;9.27;;;7.20;;
29362;SDS011;16349;53.672;10.014;2023-05-07T02:21:25;6.87;;;6.20;;
29362;SDS011;16349;53.672;10.014;2023-05-07T02:23:52;7.67;;;6.93;;
29362;SDS011;16349;53.672;10.014;2023-05-07T02:26:19;8.20;;;7.07;;
29362;SDS011;16349;53.672;10.014;2023-05-07T02:28:47;7.63;;;6.87;;
29362;SDS011;16349;53.672;10.014;2023-05-07T02:31:14;7.20;;;6.50;;
29362;SDS011;16349;53.672;10.014;2023-05-07T02:33:42;7.67;;;6.90;;
29362;SDS011;16349;53.672;10.014;2023-05-07T02:36:11;8.30;;;6.60;;
29362;SDS011;16349;53.672;10.014;2023-05-07T02:38:48;9.87;;;7.37;;
29362;SDS011;16349;53.672;10.014;2023-05-07T02:41:15;7.60;;;6.33;;
29362;SDS011;16349;53.672;10.014;2023-05-07T02:43:43;8.37;;;6.70;;
29362;SDS011;16349;53.672;10.014;2023-05-07T02:46:10;8.83;;;7.37;;
29362;SDS011;16349;53.672;10.014;2023-05-07T02:48:42;8.70;;;6.60;;
29362;SDS011;16349;53.672;10.014;2023-05-07T02:51:09;10.27;;;7.33;;
29362;SDS011;16349;53.672;10.014;2023-05-07T02:53:39;8.37;;;6.80;;
29362;SDS011;16349;53.672;10.014;2023-05-07T02:56:06;7.40;;;6.60;;
29362;SDS011;16349;53.672;10.014;2023-05-07T02:58:33;9.00;;;7.13;;
29362;SDS011;16349;53.672;10.014;2023-05-07T03:01:01;8.47;;;7.47;;
29362;SDS011;16349;53.672;10.014;2023-05-07T03:03:39;9.60;;;7.33;;
29362;SDS011;16349;53.672;10.014;2023-05-07T03:06:08;8.57;;;7.23;;
29362;SDS011;16349;53.672;10.014;2023-05-07T03:08:34;8.60;;;7.33;;
29362;SDS011;16349;53.672;10.014;2023-05-07T03:11:02;8.27;;;7.43;;
29362;SDS011;16349;53.672;10.014;2023-05-07T03:13:28;10.23;;;7.50;;
29362;SDS011;16349;53.672;10.014;2023-05-07T03:15:55;10.00;;;7.30;;
29362;SDS011;16349;53.672;10.014;2023-05-07T03:18:22;7.57;;;6.80;;
29362;SDS011;16349;53.672;10.014;2023-05-07T03:20:49;8.17;;;7.37;;
29362;SDS011;16349;53.672;10.014;2023-05-07T03:23:19;7.70;;;6.40;;
29362;SDS011;16349;53.672;10.014;2023-05-07T03:26:08;9.73;;;7.20;;
29362;SDS011;16349;53.672;10.014;2023-05-07T03:28:36;8.30;;;7.47;;
29362;SDS011;16349;53.672;10.014;2023-05-07T03:31:07;8.27;;;7.07;;
29362;SDS011;16349;53.672;10.014;2023-05-07T03:33:34;7.63;;;6.93;;
29362;SDS011;16349;53.672;10.014;2023-05-07T03:36:02;9.47;;;7.47;;
29362;SDS011;16349;53.672;10.014;2023-05-07T03:38:30;8.90;;;7.53;;
29362;SDS011;16349;53.672;10.014;2023-05-07T03:40:57;8.10;;;6.90;;
29362;SDS011;16349;53.672;10.014;2023-05-07T03:43:25;8.53;;;7.63;;
29362;SDS011;16349;53.672;10.014;2023-05-07T03:45:59;8.50;;;7.40;;
29362;SDS011;16349;53.672;10.014;2023-05-07T03:48:28;8.07;;;6.80;;
29362;SDS011;16349;53.672;10.014;2023-05-07T03:50:57;7.87;;;7.07;;
29362;SDS011;16349;53.672;10.014;2023-05-07T03:53:27;8.70;;;6.80;;
29362;SDS011;16349;53.672;10.014;2023-05-07T03:55:55;8.13;;;7.30;;
29362;SDS011;16349;53.672;10.014;2023-05-07T03:58:23;8.67;;;7.33;;
29362;SDS011;16349;53.672;10.014;2023-05-07T04:00:50;7.37;;;6.67;;
29362;SDS011;16349;53.672;10.014;2023-05-07T04:03:22;8.03;;;6.77;;
29362;SDS011;16349;53.672;10.014;2023-05-07T04:05:51;7.53;;;6.83;;
29362;SDS011;16349;53.672;10.014;2023-05-07T04:08:18;8.30;;;6.57;;
29362;SDS011;16349;53.672;10.014;2023-05-07T04:10:48;8.27;;;7.07;;
29362;SDS011;16349;53.672;10.014;2023-05-07T04:13:21;7.97;;;6.63;;
29362;SDS011;16349;53.672;10.014;2023-05-07T04:15:50;7.33;;;6.63;;
29362;SDS011;16349;53.672;10.014;2023-05-07T04:18:18;9.07;;;7.17;;
29362;SDS011;16349;53.672;10.014;2023-05-07T04:20:46;7.27;;;6.43;;
29362;SDS011;16349;53.672;10.014;2023-05-07T04:23:14;9.33;;;7.13;;
29362;SDS011;16349;53.672;10.014;2023-05-07T04:25:42;7.10;;;6.47;;
29362;SDS011;16349;53.672;10.014;2023-05-07T04:28:21;7.67;;;6.60;;
29362;SDS011;16349;53.672;10.014;2023-05-07T04:30:49;7.67;;;6.87;;
29362;SDS011;16349;53.672;10.014;2023-05-07T04:33:16;10.00;;;6.97;;
29362;SDS011;16349;53.672;10.014;2023-05-07T04:35:45;7.93;;;6.87;;
29362;SDS011;16349;53.672;10.014;2023-05-07T04:38:12;7.30;;;6.60;;
29362;SDS011;16349;53.672;10.014;2023-05-07T04:40:39;7.73;;;6.77;;
29362;SDS011;16349;53.672;10.014;2023-05-07T04:43:08;8.40;;;6.87;;
29362;SDS011;16349;53.672;10.014;2023-05-07T04:45:43;9.00;;;7.23;;
29362;SDS011;16349;53.672;10.014;2023-05-07T04:48:10;6.50;;;5.90;;
29362;SDS011;16349;53.672;10.014;2023-05-07T04:50:39;6.97;;;6.27;;
29362;SDS011;16349;53.672;10.014;2023-05-07T04:53:07;8.47;;;7.00;;
29362;SDS011;16349;53.672;10.014;2023-05-07T04:55:34;7.13;;;6.00;;
29362;SDS011;16349;53.672;10.014;2023-05-07T04:58:02;7.67;;;6.23;;
29362;SDS011;16349;53.672;10.014;2023-05-07T05:00:32;6.67;;;5.77;;
29362;SDS011;16349;53.672;10.014;2023-05-07T05:03:22;6.83;;;5.63;;
29362;SDS011;16349;53.672;10.014;2023-05-07T05:05:50;5.90;;;4.97;;
29362;SDS011;16349;53.672;10.014;2023-05-07T05:08:18;6.33;;;5.73;;
29362;SDS011;16349;53.672;10.014;2023-05-07T05:10:45;6.17;;;5.57;;
29362;SDS011;16349;53.672;10.014;2023-05-07T05:13:13;6.27;;;5.23;;
29362;SDS011;16349;53.672;10.014;2023-05-07T05:15:41;6.80;;;5.60;;
29362;SDS011;16349;53.672;10.014;2023-05-07T05:18:08;7.03;;;6.23;;
29362;SDS011;16349;53.672;10.014;2023-05-07T05:20:37;8.20;;;6.07;;
29362;SDS011;16349;53.672;10.014;2023-05-07T05:23:03;6.37;;;5.50;;
29362;SDS011;16349;53.672;10.014;2023-05-07T05:25:32;5.83;;;5.20;;
29362;SDS011;16349;53.672;10.014;2023-05-07T05:27:59;6.57;;;5.97;;
29362;SDS011;16349;53.672;10.014;2023-05-07T05:30:27;6.03;;;5.43;;
29362;SDS011;16349;53.672;10.014;2023-05-07T05:32:53;6.50;;;5.70;;
29362;SDS011;16349;53.672;10.014;2023-05-07T05:35:20;6.20;;;5.63;;
29362;SDS011;16349;53.672;10.014;2023-05-07T05:37:49;5.77;;;5.00;;
29362;SDS011;16349;53.672;10.014;2023-05-07T05:40:17;5.50;;;5.00;;
29362;SDS011;16349;53.672;10.014;2023-05-07T05:42:44;6.00;;;5.43;;
29362;SDS011;16349;53.672;10.014;2023-05-07T05:45:12;7.00;;;5.50;;
29362;SDS011;16349;53.672;10.014;2023-05-07T05:47:40;7.23;;;5.43;;
29362;SDS011;16349;53.672;10.014;2023-05-07T05:50:08;5.23;;;4.73;;
29362;SDS011;16349;53.672;10.014;2023-05-07T05:52:36;6.57;;;5.70;;
29362;SDS011;16349;53.672;10.014;2023-05-07T05:55:05;5.43;;;4.90;;
29362;SDS011;16349;53.672;10.014;2023-05-07T05:57:34;5.83;;;5.30;;
29362;SDS011;16349;53.672;10.014;2023-05-07T06:00:01;5.97;;;5.10;;
29362;SDS011;16349;53.672;10.014;2023-05-07T06:02:32;6.80;;;4.93;;
29362;SDS011;16349;53.672;10.014;2023-05-07T06:05:21;6.33;;;4.90;;
29362;SDS011;16349;53.672;10.014;2023-05-07T06:07:51;6.20;;;5.57;;
29362;SDS011;16349;53.672;10.014;2023-05-07T06:10:20;6.20;;;5.60;;
29362;SDS011;16349;53.672;10.014;2023-05-07T06:12:46;6.00;;;5.40;;
29362;SDS011;16349;53.672;10.014;2023-05-07T06:15:15;5.63;;;5.00;;
29362;SDS011;16349;53.672;10.014;2023-05-07T06:17:43;5.50;;;4.70;;
29362;SDS011;16349;53.672;10.014;2023-05-07T06:20:10;5.77;;;5.27;;
29362;SDS011;16349;53.672;10.014;2023-05-07T06:22:38;6.70;;;5.73;;
29362;SDS011;16349;53.672;10.014;2023-05-07T06:25:06;6.07;;;5.10;;
29362;SDS011;16349;53.672;10.014;2023-05-07T06:27:35;6.10;;;5.27;;
29362;SDS011;16349;53.672;10.014;2023-05-07T06:30:02;5.97;;;4.93;;
29362;SDS011;16349;53.672;10.014;2023-05-07T06:32:31;6.60;;;5.90;;
29362;SDS011;16349;53.672;10.014;2023-05-07T06:34:58;5.80;;;5.30;;
29362;SDS011;16349;53.672;10.014;2023-05-07T06:37:26;5.30;;;4.77;;
29362;SDS011;16349;53.672;10.014;2023-05-07T06:39:57;5.73;;;5.23;;
29362;SDS011;16349;53.672;10.014;2023-05-07T06:42:24;6.27;;;4.83;;
29362;SDS011;16349;53.672;10.014;2023-05-07T06:44:58;5.53;;;5.03;;
29362;SDS011;16349;53.672;10.014;2023-05-07T06:47:28;6.13;;;5.30;;
29362;SDS011;16349;53.672;10.014;2023-05-07T06:49:55;6.07;;;5.13;;
29362;SDS011;16349;53.672;10.014;2023-05-07T06:52:26;5.63;;;4.67;;
29362;SDS011;16349;53.672;10.014;2023-05-07T06:54:53;5.10;;;4.60;;
29362;SDS011;16349;53.672;10.014;2023-05-07T06:57:22;6.37;;;5.17;;
29362;SDS011;16349;53.672;10.014;2023-05-07T06:59:48;5.40;;;4.90;;
29362;SDS011;16349;53.672;10.014;2023-05-07T07:02:17;5.43;;;5.03;;
29362;SDS011;16349;53.672;10.014;2023-05-07T07:04:43;5.03;;;4.57;;
29362;SDS011;16349;53.672;10.014;2023-05-07T07:07:10;5.53;;;4.60;;
29362;SDS011;16349;53.672;10.014;2023-05-07T07:09:39;6.13;;;5.03;;
29362;SDS011;16349;53.672;10.014;2023-05-07T07:12:08;5.17;;;4.67;;
29362;SDS011;16349;53.672;10.014;2023-05-07T07:14:37;4.93;;;4.43;;
29362;SDS011;16349;53.672;10.014;2023-05-07T07:17:03;5.13;;;4.23;;
29362;SDS011;16349;53.672;10.014;2023-05-07T07:19:32;5.83;;;5.17;;
29362;SDS011;16349;53.672;10.014;2023-05-07T07:22:01;4.87;;;4.40;;
29362;SDS011;16349;53.672;10.014;2023-05-07T07:24:29;7.67;;;4.47;;
29362;SDS011;16349;53.672;10.014;2023-05-07T07:26:59;5.07;;;4.60;;
29362;SDS011;16349;53.672;10.014;2023-05-07T07:29:26;4.60;;;4.20;;
29362;SDS011;16349;53.672;10.014;2023-05-07T07:31:53;4.80;;;4.40;;
29362;SDS011;16349;53.672;10.014;2023-05-07T07:34:20;4.67;;;4.23;;
29362;SDS011;16349;53.672;10.014;2023-05-07T07:36:50;5.77;;;4.67;;
29362;SDS011;16349;53.672;10.014;2023-05-07T07:39:18;5.27;;;4.40;;
29362;SDS011;16349;53.672;10.014;2023-05-07T07:41:48;4.47;;;4.07;;
29362;SDS011;16349;53.672;10.014;2023-05-07T07:44:16;4.23;;;3.93;;
29362;SDS011;16349;53.672;10.014;2023-05-07T07:46:48;4.43;;;4.03;;
29362;SDS011;16349;53.672;10.014;2023-05-07T07:49:15;5.30;;;4.07;;
29362;SDS011;16349;53.672;10.014;2023-05-07T07:51:43;4.70;;;4.30;;
29362;SDS011;16349;53.672;10.014;2023-05-07T07:54:12;5.47;;;4.10;;
29362;SDS011;16349;53.672;10.014;2023-05-07T07:56:40;5.17;;;4.67;;
29362;SDS011;16349;53.672;10.014;2023-05-07T07:59:08;4.63;;;4.17;;
29362;SDS011;16349;53.672;10.014;2023-05-07T08:01:38;4.83;;;4.33;;
29362;SDS011;16349;53.672;10.014;2023-05-07T08:04:06;4.10;;;3.80;;
29362;SDS011;16349;53.672;10.014;2023-05-07T08:06:37;4.00;;;3.70;;
29362;SDS011;16349;53.672;10.014;2023-05-07T08:09:05;4.03;;;3.73;;
29362;SDS011;16349;53.672;10.014;2023-05-07T08:11:33;3.93;;;3.63;;
29362;SDS011;16349;53.672;10.014;2023-05-07T08:14:02;4.53;;;4.10;;
29362;SDS011;16349;53.672;10.014;2023-05-07T08:16:29;3.83;;;3.53;;
29362;SDS011;16349;53.672;10.014;2023-05-07T08:18:57;5.50;;;3.97;;
29362;SDS011;16349;53.672;10.014;2023-05-07T08:21:25;4.30;;;4.00;;
29362;SDS011;16349;53.672;10.014;2023-05-07T08:23:52;4.67;;;4.27;;
29362;SDS011;16349;53.672;10.014;2023-05-07T08:26:19;4.57;;;4.17;;
29362;SDS011;16349;53.672;10.014;2023-05-07T08:28:47;7.10;;;4.20;;
29362;SDS011;16349;53.672;10.014;2023-05-07T08:31:14;4.37;;;4.00;;
29362;SDS011;16349;53.672;10.014;2023-05-07T08:33:43;5.13;;;4.73;;
29362;SDS011;16349;53.672;10.014;2023-05-07T08:36:10;5.73;;;4.13;;
29362;SDS011;16349;53.672;10.014;2023-05-07T08:38:37;4.40;;;3.93;;
29362;SDS011;16349;53.672;10.014;2023-05-07T08:41:06;5.20;;;3.77;;
29362;SDS011;16349;53.672;10.014;2023-05-07T08:43:36;4.20;;;3.77;;
29362;SDS011;16349;53.672;10.014;2023-05-07T08:46:30;4.10;;;3.80;;
29362;SDS011;16349;53.672;10.014;2023-05-07T08:48:58;5.20;;;4.70;;
29362;SDS011;16349;53.672;10.014;2023-05-07T08:51:25;4.30;;;4.00;;
29362;SDS011;16349;53.672;10.014;2023-05-07T08:53:52;4.20;;;3.90;;
29362;SDS011;16349;53.672;10.014;2023-05-07T08:56:27;3.83;;;3.30;;
29362;SDS011;16349;53.672;10.014;2023-05-07T08:58:54;4.23;;;3.77;;
29362;SDS011;16349;53.672;10.014;2023-05-07T09:01:24;4.90;;;3.70;;
29362;SDS011;16349;53.672;10.014;2023-05-07T09:03:55;4.10;;;3.70;;
29362;SDS011;16349;53.672;10.014;2023-05-07T09:06:22;4.17;;;3.77;;
29362;SDS011;16349;53.672;10.014;2023-05-07T09:08:51;3.93;;;3.60;;
29362;SDS011;16349;53.672;10.014;2023-05-07T09:11:20;4.17;;;3.70;;
29362;SDS011;16349;53.672;10.014;2023-05-07T09:13:49;3.80;;;3.50;;
29362;SDS011;16349;53.672;10.014;2023-05-07T09:16:20;3.53;;;3.23;;
29362;SDS011;16349;53.672;10.014;2023-05-07T09:18:50;3.80;;;3.50;;
29362;SDS011;16349;53.672;10.014;2023-05-07T09:21:20;4.27;;;3.90;;
29362;SDS011;16349;53.672;10.014;2023-05-07T09:23:50;4.10;;;3.40;;
29362;SDS011;16349;53.672;10.014;2023-05-07T09:26:21;4.47;;;3.77;;
29362;SDS011;16349;53.672;10.014;2023-05-07T09:28:49;3.97;;;3.57;;
29362;SDS011;16349;53.672;10.014;2023-05-07T09:31:17;3.50;;;3.30;;
29362;SDS011;16349;53.672;10.014;2023-05-07T09:33:44;3.70;;;3.40;;
29362;SDS011;16349;53.672;10.014;2023-05-07T09:36:13;3.83;;;3.40;;
29362;SDS011;16349;53.672;10.014;2023-05-07T09:38:42;3.90;;;3.60;;
29362;SDS011;16349;53.672;10.014;2023-05-07T09:41:10;5.00;;;3.60;;
29362;SDS011;16349;53.672;10.014;2023-05-07T09:43:55;3.50;;;3.20;;
29362;SDS011;16349;53.672;10.014;2023-05-07T09:46:29;3.13;;;2.83;;
29362;SDS011;16349;53.672;10.014;2023-05-07T09:49:02;3.67;;;3.40;;
29362;SDS011;16349;53.672;10.014;2023-05-07T09:51:33;5.00;;;3.30;;
29362;SDS011;16349;53.672;10.014;2023-05-07T09:54:07;3.53;;;3.23;;
29362;SDS011;16349;53.672;10.014;2023-05-07T09:56:38;4.03;;;3.60;;
29362;SDS011;16349;53.672;10.014;2023-05-07T09:59:07;4.20;;;2.87;;
29362;SDS011;16349;53.672;10.014;2023-05-07T10:01:38;4.13;;;3.73;;
29362;SDS011;16349;53.672;10.014;2023-05-07T10:04:07;4.30;;;3.50;;
29362;SDS011;16349;53.672;10.014;2023-05-07T10:06:35;3.87;;;3.43;;
29362;SDS011;16349;53.672;10.014;2023-05-07T10:09:04;4.03;;;3.67;;
29362;SDS011;16349;53.672;10.014;2023-05-07T10:11:33;4.07;;;3.67;;
29362;SDS011;16349;53.672;10.014;2023-05-07T10:14:01;3.67;;;3.37;;
29362;SDS011;16349;53.672;10.014;2023-05-07T10:16:29;3.93;;;3.53;;
29362;SDS011;16349;53.672;10.014;2023-05-07T10:19:21;3.67;;;3.30;;
29362;SDS011;16349;53.672;10.014;2023-05-07T10:21:54;3.47;;;3.27;;
29362;SDS011;16349;53.672;10.014;2023-05-07T10:24:26;4.23;;;3.30;;
29362;SDS011;16349;53.672;10.014;2023-05-07T10:26:58;3.47;;;3.17;;
29362;SDS011;16349;53.672;10.014;2023-05-07T10:29:29;3.80;;;3.47;;
29362;SDS011;16349;53.672;10.014;2023-05-07T10:32:09;3.50;;;2.93;;
29362;SDS011;16349;53.672;10.014;2023-05-07T10:34:53;3.47;;;3.17;;
29362;SDS011;16349;53.672;10.014;2023-05-07T10:37:24;3.53;;;3.23;;
29362;SDS011;16349;53.672;10.014;2023-05-07T10:39:54;3.40;;;3.10;;
29362;SDS011;16349;53.672;10.014;2023-05-07T10:42:22;3.60;;;3.30;;
29362;SDS011;16349;53.672;10.014;2023-05-07T10:44:52;3.23;;;3.03;;
29362;SDS011;16349;53.672;10.014;2023-05-07T10:47:23;3.40;;;2.83;;
29362;SDS011;16349;53.672;10.014;2023-05-07T10:56:25;3.37;;;3.10;;
29362;SDS011;16349;53.672;10.014;2023-05-07T11:02:19;2.60;;;2.40;;
29362;SDS011;16349;53.672;10.014;2023-05-07T11:07:53;4.40;;;2.80;;
29362;SDS011;16349;53.672;10.014;2023-05-07T11:10:28;4.27;;;2.83;;
29362;SDS011;16349;53.672;10.014;2023-05-07T11:16:17;4.53;;;2.73;;
29362;SDS011;16349;53.672;10.014;2023-05-07T11:18:47;3.37;;;2.53;;
29362;SDS011;16349;53.672;10.014;2023-05-07T11:21:31;2.90;;;2.70;;
29362;SDS011;16349;53.672;10.014;2023-05-07T11:24:07;2.83;;;2.63;;
29362;SDS011;16349;53.672;10.014;2023-05-07T11:26:54;2.90;;;2.70;;
29362;SDS011;16349;53.672;10.014;2023-05-07T11:29:24;3.17;;;2.97;;
29362;SDS011;16349;53.672;10.014;2023-05-07T11:32:00;3.13;;;2.83;;
29362;SDS011;16349;53.672;10.014;2023-05-07T11:34:33;4.23;;;2.47;;
29362;SDS011;16349;53.672;10.014;2023-05-07T11:37:00;2.23;;;2.13;;
29362;SDS011;16349;53.672;10.014;2023-05-07T11:39:39;3.53;;;2.33;;
29362;SDS011;16349;53.672;10.014;2023-05-07T11:42:06;2.83;;;2.63;;
29362;SDS011;16349;53.672;10.014;2023-05-07T11:44:42;2.40;;;2.30;;
29362;SDS011;16349;53.672;10.014;2023-05-07T11:47:12;2.87;;;2.40;;
29362;SDS011;16349;53.672;10.014;2023-05-07T11:49:43;2.87;;;2.67;;
29362;SDS011;16349;53.672;10.014;2023-05-07T11:52:13;2.20;;;1.97;;
29362;SDS011;16349;53.672;10.014;2023-05-07T11:54:59;2.60;;;2.40;;
29362;SDS011;16349;53.672;10.014;2023-05-07T11:57:29;2.30;;;2.20;;
29362;SDS011;16349;53.672;10.014;2023-05-07T11:59:56;2.10;;;2.00;;
29362;SDS011;16349;53.672;10.014;2023-05-07T12:02:25;2.77;;;2.03;;
29362;SDS011;16349;53.672;10.014;2023-05-07T12:04:56;2.10;;;1.90;;
29362;SDS011;16349;53.672;10.014;2023-05-07T12:07:23;2.23;;;2.13;;
29362;SDS011;16349;53.672;10.014;2023-05-07T12:09:50;2.10;;;2.00;;
29362;SDS011;16349;53.672;10.014;2023-05-07T12:12:17;2.10;;;1.90;;
29362;SDS011;16349;53.672;10.014;2023-05-07T12:14:44;2.37;;;2.17;;
29362;SDS011;16349;53.672;10.014;2023-05-07T12:17:13;2.67;;;2.43;;
29362;SDS011;16349;53.672;10.014;2023-05-07T12:19:41;2.37;;;2.17;;
29362;SDS011;16349;53.672;10.014;2023-05-07T12:22:10;2.33;;;2.20;;
29362;SDS011;16349;53.672;10.014;2023-05-07T12:24:43;2.17;;;1.90;;
29362;SDS011;16349;53.672;10.014;2023-05-07T12:27:11;3.00;;;1.80;;
29362;SDS011;16349;53.672;10.014;2023-05-07T12:29:38;2.60;;;1.87;;
29362;SDS011;16349;53.672;10.014;2023-05-07T12:32:06;1.80;;;1.70;;
29362;SDS011;16349;53.672;10.014;2023-05-07T12:34:39;2.07;;;1.97;;
29362;SDS011;16349;53.672;10.014;2023-05-07T12:37:07;3.07;;;1.93;;
29362;SDS011;16349;53.672;10.014;2023-05-07T12:42:41;2.27;;;2.07;;
29362;SDS011;16349;53.672;10.014;2023-05-07T12:45:10;2.30;;;2.20;;
29362;SDS011;16349;53.672;10.014;2023-05-07T12:47:38;1.80;;;1.70;;
29362;SDS011;16349;53.672;10.014;2023-05-07T12:50:06;1.80;;;1.70;;
29362;SDS011;16349;53.672;10.014;2023-05-07T12:52:35;2.33;;;1.60;;
29362;SDS011;16349;53.672;10.014;2023-05-07T12:55:05;1.70;;;1.60;;
29362;SDS011;16349;53.672;10.014;2023-05-07T12:57:37;2.20;;;1.87;;
29362;SDS011;16349;53.672;10.014;2023-05-07T13:00:05;1.60;;;1.50;;
29362;SDS011;16349;53.672;10.014;2023-05-07T13:02:34;1.70;;;1.60;;
29362;SDS011;16349;53.672;10.014;2023-05-07T13:05:05;1.77;;;1.67;;
29362;SDS011;16349;53.672;10.014;2023-05-07T13:07:32;1.50;;;1.40;;
29362;SDS011;16349;53.672;10.014;2023-05-07T13:10:00;2.00;;;1.80;;
29362;SDS011;16349;53.672;10.014;2023-05-07T13:12:28;1.77;;;1.67;;
29362;SDS011;16349;53.672;10.014;2023-05-07T13:14:55;1.87;;;1.43;;
29362;SDS011;16349;53.672;10.014;2023-05-07T13:17:25;1.40;;;1.30;;
29362;SDS011;16349;53.672;10.014;2023-05-07T13:19:52;1.90;;;1.80;;
29362;SDS011;16349;53.672;10.014;2023-05-07T13:22:19;1.17;;;1.17;;
29362;SDS011;16349;53.672;10.014;2023-05-07T13:24:46;4.73;;;1.40;;
29362;SDS011;16349;53.672;10.014;2023-05-07T13:27:15;1.70;;;1.53;;
29362;SDS011;16349;53.672;10.014;2023-05-07T13:29:42;1.47;;;1.37;;
29362;SDS011;16349;53.672;10.014;2023-05-07T13:32:09;3.00;;;1.40;;
29362;SDS011;16349;53.672;10.014;2023-05-07T13:34:36;1.53;;;1.43;;
29362;SDS011;16349;53.672;10.014;2023-05-07T13:37:03;2.20;;;1.60;;
29362;SDS011;16349;53.672;10.014;2023-05-07T13:39:30;2.77;;;1.30;;
29362;SDS011;16349;53.672;10.014;2023-05-07T13:41:57;1.23;;;1.20;;
29362;SDS011;16349;53.672;10.014;2023-05-07T13:44:27;3.33;;;1.43;;
29362;SDS011;16349;53.672;10.014;2023-05-07T13:46:54;1.90;;;1.33;;
29362;SDS011;16349;53.672;10.014;2023-05-07T13:49:21;1.33;;;1.20;;
29362;SDS011;16349;53.672;10.014;2023-05-07T13:51:48;1.47;;;1.37;;
29362;SDS011;16349;53.672;10.014;2023-05-07T13:54:15;1.30;;;1.20;;
29362;SDS011;16349;53.672;10.014;2023-05-07T13:56:42;3.53;;;1.50;;
29362;SDS011;16349;53.672;10.014;2023-05-07T13:59:09;1.80;;;1.70;;
29362;SDS011;16349;53.672;10.014;2023-05-07T14:01:38;1.30;;;1.20;;
29362;SDS011;16349;53.672;10.014;2023-05-07T14:04:05;1.10;;;1.10;;
29362;SDS011;16349;53.672;10.014;2023-05-07T14:06:33;1.40;;;1.30;;
29362;SDS011;16349;53.672;10.014;2023-05-07T14:09:02;1.13;;;1.10;;
29362;SDS011;16349;53.672;10.014;2023-05-07T14:11:29;1.50;;;1.40;;
29362;SDS011;16349;53.672;10.014;2023-05-07T14:13:56;2.00;;;1.35;;
29362;SDS011;16349;53.672;10.014;2023-05-07T14:16:24;1.33;;;1.23;;
29362;SDS011;16349;53.672;10.014;2023-05-07T14:18:52;1.20;;;1.20;;
29362;SDS011;16349;53.672;10.014;2023-05-07T14:21:19;1.55;;;1.45;;
29362;SDS011;16349;53.672;10.014;2023-05-07T14:23:46;1.65;;;1.55;;
29362;SDS011;16349;53.672;10.014;2023-05-07T14:26:13;1.95;;;1.10;;
29362;SDS011;16349;53.672;10.014;2023-05-07T14:28:41;2.05;;;1.15;;
29362;SDS011;16349;53.672;10.014;2023-05-07T14:31:11;1.63;;;1.50;;
29362;SDS011;16349;53.672;10.014;2023-05-07T14:33:38;1.38;;;1.27;;
29362;SDS011;16349;53.672;10.014;2023-05-07T14:36:07;1.45;;;1.30;;
29362;SDS011;16349;53.672;10.014;2023-05-07T14:38:34;0.90;;;0.90;;
29362;SDS011;16349;53.672;10.014;2023-05-07T14:41:03;1.30;;;1.20;;
29362;SDS011;16349;53.672;10.014;2023-05-07T14:43:30;1.13;;;1.08;;
29362;SDS011;16349;53.672;10.014;2023-05-07T14:45:57;1.42;;;1.33;;
29362;SDS011;16349;53.672;10.014;2023-05-07T14:48:24;1.95;;;1.50;;
29362;SDS011;16349;53.672;10.014;2023-05-07T14:50:50;1.40;;;1.30;;
29362;SDS011;16349;53.672;10.014;2023-05-07T14:53:19;1.58;;;1.35;;
29362;SDS011;16349;53.672;10.014;2023-05-07T14:55:46;2.65;;;1.20;;
29362;SDS011;16349;53.672;10.014;2023-05-07T14:58:14;1.35;;;1.25;;
29362;SDS011;16349;53.672;10.014;2023-05-07T15:00:41;1.10;;;1.10;;
29362;SDS011;16349;53.672;10.014;2023-05-07T15:03:09;1.10;;;1.10;;